createdAt,value
2019-01-02T00:01:57.723Z,4.70
2019-01-02T00:04:38.283Z,4.70
2019-01-02T00:07:19.331Z,4.80
2019-01-02T00:09:59.987Z,4.70
2019-01-02T00:12:40.797Z,4.80
2019-01-02T00:15:22.592Z,4.90
2019-01-02T00:18:02.995Z,5.00
2019-01-02T00:20:43.899Z,5.00
2019-01-02T00:23:24.735Z,5.10
2019-01-02T00:26:05.299Z,5.20
2019-01-02T00:28:45.879Z,5.10
2019-01-02T00:31:26.823Z,5.20
2019-01-02T00:33:55.204Z,5.30
2019-01-02T00:36:43.298Z,5.40
2019-01-02T00:39:33.001Z,5.40
2019-01-02T00:42:20.732Z,5.40
2019-01-02T00:45:08.819Z,5.40
2019-01-02T00:47:58.269Z,5.40
2019-01-02T00:50:45.999Z,5.50
2019-01-02T00:53:14.726Z,5.50
2019-01-02T00:55:55.207Z,5.40
2019-01-02T00:58:35.887Z,5.50
2019-01-02T01:01:16.603Z,5.50
2019-01-02T01:03:57.375Z,5.50
2019-01-02T01:06:37.984Z,5.60
2019-01-02T01:09:18.947Z,5.50
2019-01-02T01:11:59.733Z,5.40
2019-01-02T01:17:24.251Z,5.00
2019-01-02T01:20:05.024Z,4.90
2019-01-02T01:22:45.828Z,4.80
2019-01-02T01:25:26.937Z,4.80
2019-01-02T01:28:07.371Z,4.70
2019-01-02T01:30:48.123Z,4.60
2019-01-02T01:33:28.840Z,4.50
2019-01-02T01:36:09.723Z,4.50
2019-01-02T01:38:53.665Z,4.40
2019-01-02T01:41:34.647Z,4.40
2019-01-02T01:44:15.227Z,4.30
2019-01-02T01:46:56.079Z,4.30
2019-01-02T01:49:36.827Z,4.30
2019-01-02T01:52:17.703Z,4.30
2019-01-02T01:54:58.179Z,4.30
2019-01-02T01:57:39.104Z,4.20
2019-01-02T02:00:19.574Z,4.20
2019-01-02T02:03:00.015Z,4.20
2019-01-02T02:05:40.970Z,4.30
2019-01-02T02:08:21.827Z,4.30
2019-01-02T02:11:02.632Z,4.30
2019-01-02T02:13:43.353Z,4.30
2019-01-02T02:19:06.779Z,4.20
2019-01-02T02:21:47.151Z,4.20
2019-01-02T02:24:28.045Z,4.20
2019-01-02T02:27:09.420Z,4.10
2019-01-02T02:29:37.812Z,4.20
2019-01-02T02:32:25.519Z,4.10
2019-01-02T02:35:13.253Z,4.10
2019-01-02T02:38:01.255Z,4.10
2019-01-02T02:40:49.311Z,4.10
2019-01-02T02:43:37.030Z,4.10
2019-01-02T02:46:24.971Z,4.00
2019-01-02T02:49:12.723Z,4.10
2019-01-02T02:52:00.446Z,4.00
2019-01-02T02:54:41.407Z,4.00
2019-01-02T02:57:21.811Z,3.90
2019-01-02T03:00:02.297Z,4.00
2019-01-02T03:02:43.310Z,4.00
2019-01-02T03:05:23.887Z,4.10
2019-01-02T03:08:04.581Z,4.10
2019-01-02T03:10:45.590Z,4.00
2019-01-02T03:13:26.384Z,4.00
2019-01-02T03:16:07.259Z,3.90
2019-01-02T03:18:48.075Z,3.90
2019-01-02T03:21:28.935Z,3.80
2019-01-02T03:24:09.667Z,3.80
2019-01-02T03:26:50.491Z,3.90
2019-01-02T03:29:31.353Z,3.90
2019-01-02T03:32:11.974Z,4.00
2019-01-02T03:34:52.768Z,3.90
2019-01-02T03:37:33.279Z,3.90
2019-01-02T03:40:14.180Z,3.80
2019-01-02T03:42:54.772Z,3.90
2019-01-02T03:45:35.535Z,3.90
2019-01-02T03:48:16.051Z,3.80
2019-01-02T03:50:56.736Z,3.80
2019-01-02T03:56:19.551Z,3.90
2019-01-02T03:59:00.012Z,4.00
2019-01-02T04:01:28.637Z,4.00
2019-01-02T04:04:16.351Z,4.10
2019-01-02T04:07:04.396Z,4.20
2019-01-02T04:09:52.447Z,4.20
2019-01-02T04:12:40.400Z,4.30
2019-01-02T04:15:28.119Z,4.30
2019-01-02T04:18:16.407Z,4.20
2019-01-02T04:21:04.463Z,4.20
2019-01-02T04:23:52.180Z,4.10
2019-01-02T04:26:39.899Z,4.10
2019-01-02T04:29:27.615Z,4.10
2019-01-02T04:31:56.403Z,4.10
2019-01-02T04:34:44.111Z,4.00
2019-01-02T04:37:31.831Z,4.00
2019-01-02T04:40:19.853Z,4.00
2019-01-02T04:43:07.804Z,3.90
2019-01-02T04:45:55.530Z,3.90
2019-01-02T04:48:43.240Z,4.00
2019-01-02T04:51:31.266Z,4.10
2019-01-02T04:54:18.975Z,4.20
2019-01-02T04:56:59.972Z,4.30
2019-01-02T04:59:40.892Z,4.30
2019-01-02T05:02:21.419Z,4.40
2019-01-02T05:05:01.894Z,4.40
2019-01-02T05:07:42.551Z,4.50
2019-01-02T05:10:23.191Z,4.50
2019-01-02T05:13:03.624Z,4.50
2019-01-02T05:15:44.059Z,4.50
2019-01-02T05:18:24.324Z,4.60
2019-01-02T05:21:04.811Z,4.70
2019-01-02T05:23:45.327Z,4.70
2019-01-02T05:26:25.916Z,4.80
2019-01-02T05:29:06.380Z,4.80
2019-01-02T05:31:47.310Z,4.90
2019-01-02T05:34:28.254Z,4.90
2019-01-02T05:37:08.791Z,4.90
2019-01-02T05:42:32.699Z,4.90
2019-01-02T05:45:13.235Z,4.90
2019-01-02T05:47:57.308Z,4.80
2019-01-02T05:50:37.743Z,4.80
2019-01-02T05:53:18.387Z,4.70
2019-01-02T05:55:47.095Z,4.60
2019-01-02T05:58:35.138Z,4.50
2019-01-02T06:01:23.099Z,4.50
2019-01-02T06:04:10.803Z,4.40
2019-01-02T06:06:58.795Z,4.50
2019-01-02T06:09:46.747Z,4.50
2019-01-02T06:12:34.805Z,4.50
2019-01-02T06:15:22.515Z,4.60
2019-01-02T06:18:10.231Z,4.50
2019-01-02T06:20:57.944Z,4.50
2019-01-02T06:23:45.663Z,4.50
2019-01-02T06:26:33.448Z,4.50
2019-01-02T06:29:21.202Z,4.40
2019-01-02T06:32:09.244Z,4.40
2019-01-02T06:34:57.183Z,4.30
2019-01-02T06:37:45.146Z,4.30
2019-01-02T06:40:32.855Z,4.20
2019-01-02T06:43:20.575Z,4.20
2019-01-02T06:46:08.591Z,4.20
2019-01-02T06:48:56.311Z,4.30
2019-01-02T06:51:44.025Z,4.40
2019-01-02T06:54:31.775Z,4.40
2019-01-02T06:57:13.955Z,4.40
2019-01-02T06:59:55.047Z,4.40
2019-01-02T07:02:35.523Z,4.40
2019-01-02T07:05:16.316Z,4.40
2019-01-02T07:07:57.364Z,4.40
2019-01-02T07:10:38.202Z,4.50
2019-01-02T07:13:18.795Z,4.50
2019-01-02T07:15:59.363Z,4.50
2019-01-02T07:18:39.879Z,4.40
2019-01-02T07:21:20.723Z,4.40
2019-01-02T07:24:01.227Z,4.40
2019-01-02T07:26:42.331Z,4.50
2019-01-02T07:29:23.695Z,4.50
2019-01-02T07:32:04.196Z,4.40
2019-01-02T07:34:45.295Z,4.40
2019-01-02T07:37:26.949Z,4.40
2019-01-02T07:40:07.907Z,4.30
2019-01-02T07:42:48.467Z,4.30
2019-01-02T07:45:28.919Z,4.30
2019-01-02T07:48:09.445Z,4.20
2019-01-02T07:50:49.847Z,4.20
2019-01-02T07:53:30.736Z,4.30
2019-01-02T07:58:54.635Z,4.40
2019-01-02T08:01:35.379Z,4.40
2019-01-02T08:04:16.215Z,4.40
2019-01-02T08:06:56.571Z,4.40
2019-01-02T08:09:37.011Z,4.50
2019-01-02T08:12:17.311Z,4.50
2019-01-02T08:15:03.067Z,4.60
2019-01-02T08:17:39.971Z,4.70
2019-01-02T08:20:24.107Z,4.80
2019-01-02T08:23:04.863Z,4.90
2019-01-02T08:25:45.484Z,4.90
2019-01-02T08:28:25.763Z,5.00
2019-01-02T08:31:06.635Z,5.10
2019-01-02T08:33:47.404Z,5.20
2019-01-02T08:36:28.068Z,5.20
2019-01-02T08:39:08.848Z,5.20
2019-01-02T08:41:49.832Z,5.30
2019-01-02T08:44:30.327Z,5.30
2019-01-02T08:47:10.599Z,5.30
2019-01-02T08:49:51.252Z,5.30
2019-01-02T08:52:31.787Z,5.30
2019-01-02T08:55:12.511Z,5.20
2019-01-02T08:57:53.150Z,5.20
2019-01-02T09:00:34.023Z,5.30
2019-01-02T09:03:14.756Z,5.60
2019-01-02T09:05:55.484Z,5.80
2019-01-02T09:08:36.219Z,6.10
2019-01-02T09:11:17.068Z,6.40
2019-01-02T09:13:57.552Z,6.60
2019-01-02T09:16:38.005Z,6.80
2019-01-02T09:19:18.508Z,7.10
2019-01-02T09:22:00.848Z,7.20
2019-01-02T09:24:41.961Z,7.00
2019-01-02T09:27:22.600Z,6.90
2019-01-02T09:30:03.164Z,6.90
2019-01-02T09:32:43.895Z,6.80
2019-01-02T09:35:24.355Z,6.80
2019-01-02T09:38:05.135Z,7.20
2019-01-02T09:40:45.933Z,8.60
2019-01-02T09:43:26.767Z,10.40
2019-01-02T09:46:07.607Z,12.20
2019-01-02T09:48:48.152Z,13.60
2019-01-02T09:51:28.948Z,14.40
2019-01-02T09:54:09.728Z,14.60
2019-01-02T09:56:50.323Z,14.00
2019-01-02T10:02:15.199Z,14.70
2019-01-02T10:07:40.104Z,15.10
2019-01-02T10:10:20.556Z,13.80
2019-01-02T10:13:01.374Z,12.30
2019-01-02T10:15:42.380Z,11.30
2019-01-02T10:18:23.119Z,10.50
2019-01-02T10:21:03.984Z,10.00
2019-01-02T10:23:44.884Z,9.60
2019-01-02T10:26:25.727Z,9.30
2019-01-02T10:29:06.023Z,9.20
2019-01-02T10:32:14.458Z,9.00
2019-01-02T10:35:21.501Z,8.60
2019-01-02T10:38:28.791Z,8.30
2019-01-02T10:41:37.464Z,8.10
2019-01-02T10:44:44.515Z,8.20
2019-01-02T10:47:53.220Z,8.30
2019-01-02T10:51:00.504Z,8.30
2019-01-02T10:54:07.773Z,8.00
2019-01-02T10:56:47.975Z,7.70
2019-01-02T10:59:28.520Z,7.40
2019-01-02T11:02:09.319Z,7.30
2019-01-02T11:04:49.923Z,7.30
2019-01-02T11:07:31.781Z,7.10
2019-01-02T11:10:13.155Z,7.10
2019-01-02T11:12:53.531Z,7.10
2019-01-02T11:15:34.307Z,7.20
2019-01-02T11:18:15.128Z,7.40
2019-01-02T11:20:55.744Z,7.60
2019-01-02T11:23:36.311Z,8.40
2019-01-02T11:26:16.959Z,10.30
2019-01-02T11:28:57.970Z,11.60
2019-01-02T11:31:38.948Z,12.70
2019-01-02T11:34:19.731Z,14.90
2019-01-02T11:37:00.868Z,15.10
2019-01-02T11:39:41.711Z,15.80
2019-01-02T11:42:22.259Z,15.90
2019-01-02T11:45:02.924Z,16.40
2019-01-02T11:47:43.417Z,16.70
2019-01-02T11:50:24.023Z,17.30
2019-01-02T11:53:04.869Z,17.80
2019-01-02T11:55:45.477Z,16.80
2019-01-02T11:58:26.363Z,15.40
2019-01-02T12:01:07.239Z,16.10
2019-01-02T12:03:47.784Z,16.90
2019-01-02T12:06:28.424Z,17.40
2019-01-02T12:09:09.181Z,17.80
2019-01-02T12:11:49.655Z,17.80
2019-01-02T12:14:30.507Z,18.40
2019-01-02T12:17:11.195Z,19.20
2019-01-02T12:19:51.939Z,19.40
2019-01-02T12:22:32.587Z,19.80
2019-01-02T12:25:13.151Z,20.20
2019-01-02T12:27:53.488Z,21.10
2019-01-02T12:30:34.154Z,21.20
2019-01-02T12:33:15.135Z,21.70
2019-01-02T12:35:56.179Z,22.40
2019-01-02T12:38:37.004Z,22.10
2019-01-02T12:41:17.452Z,21.90
2019-01-02T12:43:57.915Z,22.10
2019-01-02T12:46:38.735Z,22.60
2019-01-02T12:49:19.515Z,22.40
2019-01-02T12:51:59.935Z,22.20
2019-01-02T12:54:40.576Z,20.90
2019-01-02T12:57:21.187Z,19.80
2019-01-02T13:00:01.969Z,18.30
2019-01-02T13:02:42.681Z,17.00
2019-01-02T13:05:23.120Z,15.40
2019-01-02T13:08:03.939Z,14.00
2019-01-02T13:10:44.691Z,14.20
2019-01-02T13:13:25.423Z,15.30
2019-01-02T13:16:06.639Z,16.20
2019-01-02T13:18:47.424Z,16.10
2019-01-02T13:21:27.931Z,15.30
2019-01-02T13:24:08.683Z,14.20
2019-01-02T13:26:49.379Z,15.00
2019-01-02T13:29:29.951Z,15.40
2019-01-02T13:32:10.663Z,15.90
2019-01-02T13:34:51.231Z,16.80
2019-01-02T13:37:31.987Z,17.80
2019-01-02T13:40:12.703Z,18.40
2019-01-02T13:42:53.687Z,19.00
2019-01-02T13:45:34.576Z,19.50
2019-01-02T13:48:15.603Z,19.60
2019-01-02T13:50:56.235Z,18.70
2019-01-02T13:53:37.228Z,16.70
2019-01-02T13:56:17.801Z,14.90
2019-01-02T13:58:58.968Z,13.50
2019-01-02T14:01:39.472Z,13.20
2019-01-02T14:04:20.662Z,14.10
2019-01-02T14:07:01.516Z,14.80
2019-01-02T14:09:41.659Z,15.30
2019-01-02T14:12:22.119Z,14.50
2019-01-02T14:15:02.868Z,13.40
2019-01-02T14:17:43.657Z,12.50
2019-01-02T14:20:24.219Z,11.80
2019-01-02T14:23:04.952Z,11.30
2019-01-02T14:25:45.802Z,10.70
2019-01-02T14:28:26.435Z,10.20
2019-01-02T14:31:07.048Z,9.90
2019-01-02T14:33:47.547Z,9.40
2019-01-02T14:36:28.507Z,9.10
2019-01-02T14:39:09.077Z,8.80
2019-01-02T14:41:50.407Z,8.60
2019-01-02T14:44:30.719Z,8.40
2019-01-02T14:47:11.951Z,8.10
2019-01-02T14:49:52.859Z,7.90
2019-01-02T14:52:33.387Z,7.50
2019-01-02T14:55:14.043Z,7.20
2019-01-02T14:57:54.827Z,7.10
2019-01-02T15:00:35.444Z,6.90
2019-01-02T15:03:16.259Z,6.70
2019-01-02T15:05:56.919Z,6.60
2019-01-02T15:08:37.545Z,6.40
2019-01-02T15:11:17.993Z,6.40
2019-01-02T15:13:58.548Z,6.20
2019-01-02T15:16:44.550Z,6.00
2019-01-02T15:19:22.187Z,6.00
2019-01-02T15:22:05.017Z,5.90
2019-01-02T15:24:49.446Z,5.90
2019-01-02T15:27:27.648Z,5.80
2019-01-02T15:30:08.439Z,5.70
2019-01-02T15:32:49.171Z,5.50
2019-01-02T15:35:29.957Z,5.40
2019-01-02T15:38:10.583Z,5.40
2019-01-02T15:40:51.291Z,5.30
2019-01-02T15:43:31.975Z,5.20
2019-01-02T15:46:12.571Z,5.10
2019-01-02T15:48:53.822Z,5.00
2019-01-02T15:51:34.587Z,4.90
2019-01-02T15:54:15.805Z,4.90
2019-01-02T15:56:56.150Z,4.80
2019-01-02T15:59:36.687Z,4.80
2019-01-02T16:02:17.880Z,4.80
2019-01-02T16:04:58.804Z,4.60
2019-01-02T16:07:39.455Z,4.60
2019-01-02T16:10:20.273Z,4.50
2019-01-02T16:13:00.595Z,4.50
2019-01-02T16:15:41.556Z,4.40
2019-01-02T16:18:22.535Z,4.40
2019-01-02T16:21:03.415Z,4.40
2019-01-02T16:23:44.295Z,4.30
2019-01-02T16:26:24.794Z,4.30
2019-01-02T16:29:05.411Z,4.30
2019-01-02T16:31:45.843Z,4.20
2019-01-02T16:34:26.318Z,4.20
2019-01-02T16:37:07.064Z,4.10
2019-01-02T16:39:48.252Z,4.10
2019-01-02T16:42:28.971Z,4.10
2019-01-02T16:45:09.579Z,4.00
2019-01-02T16:47:50.220Z,3.90
2019-01-02T16:50:30.781Z,3.90
2019-01-02T16:53:11.962Z,3.80
2019-01-02T16:55:52.394Z,3.80
2019-01-02T16:58:33.163Z,3.70
2019-01-02T17:01:13.696Z,3.60
2019-01-02T17:03:54.227Z,3.60
2019-01-02T17:06:35.155Z,3.60
2019-01-02T17:09:15.511Z,3.60
2019-01-02T17:11:56.223Z,3.60
2019-01-02T17:14:36.739Z,3.60
2019-01-02T17:17:17.631Z,3.50
2019-01-02T17:19:58.247Z,3.50
2019-01-02T17:22:38.631Z,3.40
2019-01-02T17:25:19.272Z,3.40
2019-01-02T17:28:00.491Z,3.40
2019-01-02T17:30:41.283Z,3.40
2019-01-02T17:33:22.111Z,3.30
2019-01-02T17:36:02.667Z,3.30
2019-01-02T17:38:43.707Z,3.30
2019-01-02T17:41:24.563Z,3.30
2019-01-02T17:44:05.583Z,3.20
2019-01-02T17:49:30.407Z,3.20
2019-01-02T17:52:11.418Z,3.20
2019-01-02T17:54:52.160Z,3.20
2019-01-02T17:57:32.822Z,3.20
2019-01-02T18:00:13.268Z,3.10
2019-01-02T18:02:54.171Z,3.10
2019-01-02T18:05:34.863Z,3.10
2019-01-02T18:08:15.684Z,3.00
2019-01-02T18:10:56.172Z,3.00
2019-01-02T18:13:36.766Z,2.90
2019-01-02T18:16:17.871Z,2.90
2019-01-02T18:18:58.239Z,2.90
2019-01-02T18:21:38.657Z,2.80
2019-01-02T18:24:19.459Z,2.80
2019-01-02T18:27:00.426Z,2.80
2019-01-02T18:29:41.342Z,2.80
2019-01-02T18:32:22.004Z,2.70
2019-01-02T18:35:03.156Z,2.70
2019-01-02T18:37:43.687Z,2.70
2019-01-02T18:40:24.287Z,2.70
2019-01-02T18:43:04.844Z,2.70
2019-01-02T18:45:45.440Z,2.60
2019-01-02T18:48:25.891Z,2.60
2019-01-02T18:51:06.407Z,2.60
2019-01-02T18:53:47.012Z,2.60
2019-01-02T18:56:28.193Z,2.60
2019-01-02T18:59:09.076Z,2.50
2019-01-02T19:01:49.855Z,2.40
2019-01-02T19:04:30.459Z,2.40
2019-01-02T19:07:11.031Z,2.30
2019-01-02T19:09:51.852Z,2.20
2019-01-02T19:12:32.367Z,2.20
2019-01-02T19:15:13.005Z,2.10
2019-01-02T19:17:53.692Z,2.10
2019-01-02T19:20:34.304Z,2.00
2019-01-02T19:23:15.175Z,2.00
2019-01-02T19:25:56.411Z,1.90
2019-01-02T19:28:36.846Z,1.90
2019-01-02T19:31:17.431Z,1.80
2019-01-02T19:33:57.903Z,1.80
2019-01-02T19:36:38.690Z,1.80
2019-01-02T19:39:20.291Z,1.80
2019-01-02T19:42:00.967Z,1.80
2019-01-02T19:44:41.807Z,1.80
2019-01-02T19:47:22.707Z,1.80
2019-01-02T19:50:03.356Z,1.80
2019-01-02T19:52:44.223Z,1.70
2019-01-02T19:55:25.058Z,1.70
2019-01-02T19:58:05.586Z,1.70
2019-01-02T20:00:46.652Z,1.60
2019-01-02T20:03:26.859Z,1.60
2019-01-02T20:06:07.552Z,1.50
2019-01-02T20:08:48.115Z,1.50
2019-01-02T20:11:28.607Z,1.40
2019-01-02T20:14:08.991Z,1.50
2019-01-02T20:16:49.432Z,1.40
2019-01-02T20:19:30.167Z,1.40
2019-01-02T20:22:10.515Z,1.40
2019-01-02T20:24:54.759Z,1.40
2019-01-02T20:27:35.333Z,1.30
2019-01-02T20:30:15.931Z,1.30
2019-01-02T20:32:56.743Z,1.20
2019-01-02T20:35:37.103Z,1.20
2019-01-02T20:38:17.651Z,1.10
2019-01-02T20:40:58.085Z,1.10
2019-01-02T20:43:38.507Z,1.10
2019-01-02T20:46:19.168Z,1.10
2019-01-02T20:48:59.635Z,1.10
2019-01-02T20:51:39.824Z,1.10
2019-01-02T20:54:20.278Z,1.00
2019-01-02T20:57:00.835Z,1.00
2019-01-02T20:59:41.087Z,1.00
2019-01-02T21:02:21.719Z,1.10
2019-01-02T21:05:02.396Z,1.00
2019-01-02T21:07:43.575Z,1.00
2019-01-02T21:10:24.243Z,1.00
2019-01-02T21:13:05.400Z,1.00
2019-01-02T21:15:45.708Z,1.00
2019-01-02T21:18:26.424Z,1.00
2019-01-02T21:21:06.987Z,1.00
2019-01-02T21:23:47.475Z,1.00
2019-01-02T21:26:27.935Z,1.00
2019-01-02T21:29:08.504Z,1.00
2019-01-02T21:31:49.312Z,1.00
2019-01-02T21:34:30.125Z,1.00
2019-01-02T21:37:10.631Z,1.00
2019-01-02T21:39:51.533Z,1.00
2019-01-02T21:42:32.528Z,1.00
2019-01-02T21:45:13.256Z,1.00
2019-01-02T21:47:53.891Z,1.00
2019-01-02T21:50:34.796Z,1.00
2019-01-02T21:53:15.467Z,1.00
2019-01-02T21:55:55.904Z,0.90
2019-01-02T21:58:36.587Z,0.90
2019-01-02T22:01:17.272Z,1.00
2019-01-02T22:03:57.859Z,1.00
2019-01-02T22:06:38.300Z,0.90
2019-01-02T22:09:18.811Z,0.90
2019-01-02T22:11:59.384Z,0.90
2019-01-02T22:14:40.328Z,0.90
2019-01-02T22:17:20.930Z,0.90
2019-01-02T22:20:01.761Z,0.90
2019-01-02T22:22:42.351Z,0.90
2019-01-02T22:25:23.036Z,0.90
2019-01-02T22:28:03.583Z,0.90
2019-01-02T22:30:44.163Z,0.90
2019-01-02T22:33:24.855Z,0.90
2019-01-02T22:36:05.481Z,0.90
2019-01-02T22:38:46.139Z,0.90
2019-01-02T22:41:27.664Z,0.90
2019-01-02T22:44:07.951Z,0.80
2019-01-02T22:46:48.579Z,0.70
2019-01-02T22:49:29.195Z,0.70
2019-01-02T22:52:09.687Z,0.60
2019-01-02T22:54:50.371Z,0.50
2019-01-02T22:57:31.016Z,0.40
2019-01-02T23:00:16.383Z,0.40
2019-01-02T23:02:59.065Z,0.30
2019-01-02T23:06:00.544Z,0.20
2019-01-02T23:09:00.380Z,0.20
2019-01-02T23:11:42.247Z,0.10
2019-01-02T23:20:43.688Z,0.00
2019-01-02T23:23:26.455Z,0.00
2019-01-02T23:26:27.016Z,0.00
2019-01-02T23:32:32.435Z,0.00
2019-01-02T23:35:15.339Z,-0.10
2019-01-02T23:37:57.883Z,-0.30
2019-01-02T23:40:40.487Z,-0.10
2019-01-02T23:46:49.248Z,-0.20
2019-01-02T23:49:34.238Z,-0.30
2019-01-02T23:52:35.668Z,-0.30
2019-01-02T23:58:20.843Z,-0.30
